sensor_id;sensor_type;location;lat;lon;timestamp;temperature;humidity
16102;DHT22;56411;52.964;10.540;2022-12-18T00:00:48;-8.00;99.90
16102;DHT22;56411;52.964;10.540;2022-12-18T00:03:15;-8.10;99.90
16102;DHT22;56411;52.964;10.540;2022-12-18T00:05:48;-8.30;99.90
16102;DHT22;56411;52.964;10.540;2022-12-18T00:08:15;-8.40;99.90
16102;DHT22;56411;52.964;10.540;2022-12-18T00:10:43;-8.60;99.90
16102;DHT22;56411;52.964;10.540;2022-12-18T00:13:11;-8.70;99.90
16102;DHT22;56411;52.964;10.540;2022-12-18T00:15:40;-8.60;99.90
16102;DHT22;56411;52.964;10.540;2022-12-18T00:18:07;-8.50;99.90
16102;DHT22;56411;52.964;10.540;2022-12-18T00:20:36;-8.50;99.90
16102;DHT22;56411;52.964;10.540;2022-12-18T00:23:03;-8.50;99.90
16102;DHT22;56411;52.964;10.540;2022-12-18T00:25:33;-8.60;99.90
16102;DHT22;56411;52.964;10.540;2022-12-18T00:28:01;-8.60;99.90
16102;DHT22;56411;52.964;10.540;2022-12-18T00:30:28;-8.70;99.90
16102;DHT22;56411;52.964;10.540;2022-12-18T00:32:57;-8.70;99.90
16102;DHT22;56411;52.964;10.540;2022-12-18T00:35:24;-8.70;99.90
16102;DHT22;56411;52.964;10.540;2022-12-18T00:37:51;-8.50;99.90
16102;DHT22;56411;52.964;10.540;2022-12-18T00:40:18;-8.40;99.90
16102;DHT22;56411;52.964;10.540;2022-12-18T00:42:45;-8.50;99.90
16102;DHT22;56411;52.964;10.540;2022-12-18T00:45:24;-8.60;99.90
16102;DHT22;56411;52.964;10.540;2022-12-18T00:47:51;-8.60;99.90
16102;DHT22;56411;52.964;10.540;2022-12-18T00:50:20;-8.60;99.90
16102;DHT22;56411;52.964;10.540;2022-12-18T00:52:47;-8.60;99.90
16102;DHT22;56411;52.964;10.540;2022-12-18T00:55:15;-8.50;99.90
16102;DHT22;56411;52.964;10.540;2022-12-18T00:57:42;-8.60;99.90
16102;DHT22;56411;52.964;10.540;2022-12-18T01:00:11;-8.60;99.90
16102;DHT22;56411;52.964;10.540;2022-12-18T01:02:39;-8.60;99.90
16102;DHT22;56411;52.964;10.540;2022-12-18T01:05:07;-8.60;99.90
16102;DHT22;56411;52.964;10.540;2022-12-18T01:07:35;-8.50;99.90
16102;DHT22;56411;52.964;10.540;2022-12-18T01:10:04;-8.40;99.90
16102;DHT22;56411;52.964;10.540;2022-12-18T01:12:32;-8.50;99.90
16102;DHT22;56411;52.964;10.540;2022-12-18T01:15:00;-8.50;99.90
16102;DHT22;56411;52.964;10.540;2022-12-18T01:17:27;-8.60;99.90
16102;DHT22;56411;52.964;10.540;2022-12-18T01:19:54;-8.60;99.90
16102;DHT22;56411;52.964;10.540;2022-12-18T01:22:21;-8.80;99.90
16102;DHT22;56411;52.964;10.540;2022-12-18T01:24:50;-8.80;99.90
16102;DHT22;56411;52.964;10.540;2022-12-18T01:27:17;-8.80;99.90
16102;DHT22;56411;52.964;10.540;2022-12-18T01:29:44;-8.70;99.90
16102;DHT22;56411;52.964;10.540;2022-12-18T01:32:11;-8.70;99.90
16102;DHT22;56411;52.964;10.540;2022-12-18T01:34:38;-8.80;99.90
16102;DHT22;56411;52.964;10.540;2022-12-18T01:37:05;-8.80;99.90
16102;DHT22;56411;52.964;10.540;2022-12-18T01:39:33;-8.90;99.90
16102;DHT22;56411;52.964;10.540;2022-12-18T01:42:05;-8.90;99.90
16102;DHT22;56411;52.964;10.540;2022-12-18T01:44:58;-8.80;99.90
16102;DHT22;56411;52.964;10.540;2022-12-18T01:47:28;-8.90;99.90
16102;DHT22;56411;52.964;10.540;2022-12-18T01:49:59;-9.00;99.90
16102;DHT22;56411;52.964;10.540;2022-12-18T01:52:28;-9.10;99.90
16102;DHT22;56411;52.964;10.540;2022-12-18T01:54:57;-9.30;99.90
16102;DHT22;56411;52.964;10.540;2022-12-18T01:57:28;-9.40;99.90
16102;DHT22;56411;52.964;10.540;2022-12-18T01:59:59;-9.50;99.90
16102;DHT22;56411;52.964;10.540;2022-12-18T02:02:28;-9.40;99.90
16102;DHT22;56411;52.964;10.540;2022-12-18T02:04:55;-9.20;99.90
16102;DHT22;56411;52.964;10.540;2022-12-18T02:07:28;-9.20;99.90
16102;DHT22;56411;52.964;10.540;2022-12-18T02:10:01;-9.30;99.90
16102;DHT22;56411;52.964;10.540;2022-12-18T02:12:38;-9.50;99.90
16102;DHT22;56411;52.964;10.540;2022-12-18T02:15:13;-9.50;99.90
16102;DHT22;56411;52.964;10.540;2022-12-18T02:17:47;-9.60;99.90
16102;DHT22;56411;52.964;10.540;2022-12-18T02:20:20;-9.70;99.90
16102;DHT22;56411;52.964;10.540;2022-12-18T02:22:58;-9.80;99.90
16102;DHT22;56411;52.964;10.540;2022-12-18T02:28:42;-9.60;99.90
16102;DHT22;56411;52.964;10.540;2022-12-18T02:31:14;-9.50;99.90
16102;DHT22;56411;52.964;10.540;2022-12-18T02:33:44;-9.40;99.90
16102;DHT22;56411;52.964;10.540;2022-12-18T02:36:13;-9.50;99.90
16102;DHT22;56411;52.964;10.540;2022-12-18T02:38:42;-9.50;99.90
16102;DHT22;56411;52.964;10.540;2022-12-18T02:41:10;-9.60;99.90
16102;DHT22;56411;52.964;10.540;2022-12-18T02:43:40;-9.50;99.90
16102;DHT22;56411;52.964;10.540;2022-12-18T02:46:29;-9.50;99.90
16102;DHT22;56411;52.964;10.540;2022-12-18T02:49:04;-9.60;99.90
16102;DHT22;56411;52.964;10.540;2022-12-18T02:51:38;-9.60;99.90
16102;DHT22;56411;52.964;10.540;2022-12-18T02:54:10;-9.70;99.90
16102;DHT22;56411;52.964;10.540;2022-12-18T02:56:46;-9.80;99.90
16102;DHT22;56411;52.964;10.540;2022-12-18T02:59:19;-9.70;99.90
16102;DHT22;56411;52.964;10.540;2022-12-18T03:01:51;-9.50;99.90
16102;DHT22;56411;52.964;10.540;2022-12-18T03:04:22;-9.50;99.90
16102;DHT22;56411;52.964;10.540;2022-12-18T03:06:55;-9.60;99.90
16102;DHT22;56411;52.964;10.540;2022-12-18T03:09:29;-9.70;99.90
16102;DHT22;56411;52.964;10.540;2022-12-18T03:12:04;-9.60;99.90
16102;DHT22;56411;52.964;10.540;2022-12-18T03:14:58;-9.60;99.90
16102;DHT22;56411;52.964;10.540;2022-12-18T03:17:31;-9.50;99.90
16102;DHT22;56411;52.964;10.540;2022-12-18T03:20:04;-9.30;99.90
16102;DHT22;56411;52.964;10.540;2022-12-18T03:22:33;-9.20;99.90
16102;DHT22;56411;52.964;10.540;2022-12-18T03:25:04;-9.20;99.90
16102;DHT22;56411;52.964;10.540;2022-12-18T03:27:33;-9.30;99.90
16102;DHT22;56411;52.964;10.540;2022-12-18T03:30:08;-9.50;99.90
16102;DHT22;56411;52.964;10.540;2022-12-18T03:32:41;-9.60;99.90
16102;DHT22;56411;52.964;10.540;2022-12-18T03:35:11;-9.60;99.90
16102;DHT22;56411;52.964;10.540;2022-12-18T03:37:40;-9.70;99.90
16102;DHT22;56411;52.964;10.540;2022-12-18T03:40:08;-9.80;99.90
16102;DHT22;56411;52.964;10.540;2022-12-18T03:42:42;-9.90;99.90
16102;DHT22;56411;52.964;10.540;2022-12-18T03:45:20;-10.00;99.90
16102;DHT22;56411;52.964;10.540;2022-12-18T03:47:59;-10.00;99.90
16102;DHT22;56411;52.964;10.540;2022-12-18T03:50:34;-10.10;99.90
16102;DHT22;56411;52.964;10.540;2022-12-18T03:53:10;-10.20;99.90
16102;DHT22;56411;52.964;10.540;2022-12-18T03:55:40;-10.20;99.90
16102;DHT22;56411;52.964;10.540;2022-12-18T03:58:08;-10.30;99.90
16102;DHT22;56411;52.964;10.540;2022-12-18T04:00:39;-10.30;99.90
16102;DHT22;56411;52.964;10.540;2022-12-18T04:03:07;-10.20;99.90
16102;DHT22;56411;52.964;10.540;2022-12-18T04:05:36;-10.10;99.90
16102;DHT22;56411;52.964;10.540;2022-12-18T04:08:04;-10.10;99.90
16102;DHT22;56411;52.964;10.540;2022-12-18T04:10:31;-10.20;99.90
16102;DHT22;56411;52.964;10.540;2022-12-18T04:12:59;-10.20;99.90
16102;DHT22;56411;52.964;10.540;2022-12-18T04:15:26;-10.30;99.90
16102;DHT22;56411;52.964;10.540;2022-12-18T04:17:55;-10.30;99.90
16102;DHT22;56411;52.964;10.540;2022-12-18T04:20:21;-10.40;99.90
16102;DHT22;56411;52.964;10.540;2022-12-18T04:22:48;-10.40;99.90
16102;DHT22;56411;52.964;10.540;2022-12-18T04:25:16;-10.40;99.90
16102;DHT22;56411;52.964;10.540;2022-12-18T04:27:43;-10.40;99.90
16102;DHT22;56411;52.964;10.540;2022-12-18T04:30:11;-10.30;99.90
16102;DHT22;56411;52.964;10.540;2022-12-18T04:32:38;-10.20;99.90
16102;DHT22;56411;52.964;10.540;2022-12-18T04:35:07;-10.20;99.90
16102;DHT22;56411;52.964;10.540;2022-12-18T04:37:36;-10.10;99.90
16102;DHT22;56411;52.964;10.540;2022-12-18T04:40:05;-10.00;99.90
16102;DHT22;56411;52.964;10.540;2022-12-18T04:42:32;-10.00;99.90
16102;DHT22;56411;52.964;10.540;2022-12-18T04:44:59;-9.90;99.90
16102;DHT22;56411;52.964;10.540;2022-12-18T04:47:26;-9.90;99.90
16102;DHT22;56411;52.964;10.540;2022-12-18T04:49:53;-10.00;99.90
16102;DHT22;56411;52.964;10.540;2022-12-18T04:52:22;-10.10;99.90
16102;DHT22;56411;52.964;10.540;2022-12-18T04:54:49;-10.20;99.90
16102;DHT22;56411;52.964;10.540;2022-12-18T04:57:16;-10.30;99.90
16102;DHT22;56411;52.964;10.540;2022-12-18T04:59:44;-10.40;99.90
16102;DHT22;56411;52.964;10.540;2022-12-18T05:02:11;-10.40;99.90
16102;DHT22;56411;52.964;10.540;2022-12-18T05:04:39;-10.30;99.90
16102;DHT22;56411;52.964;10.540;2022-12-18T05:07:06;-10.20;99.90
16102;DHT22;56411;52.964;10.540;2022-12-18T05:09:34;-10.20;99.90
16102;DHT22;56411;52.964;10.540;2022-12-18T05:12:01;-10.10;99.90
16102;DHT22;56411;52.964;10.540;2022-12-18T05:14:28;-10.00;99.90
16102;DHT22;56411;52.964;10.540;2022-12-18T05:16:55;-10.00;99.90
16102;DHT22;56411;52.964;10.540;2022-12-18T05:19:22;-10.00;99.90
16102;DHT22;56411;52.964;10.540;2022-12-18T05:21:49;-10.00;99.90
16102;DHT22;56411;52.964;10.540;2022-12-18T05:24:17;-10.20;99.90
16102;DHT22;56411;52.964;10.540;2022-12-18T05:26:45;-10.30;99.90
16102;DHT22;56411;52.964;10.540;2022-12-18T05:29:12;-10.40;99.90
16102;DHT22;56411;52.964;10.540;2022-12-18T05:31:39;-10.40;99.90
16102;DHT22;56411;52.964;10.540;2022-12-18T05:34:06;-10.40;99.90
16102;DHT22;56411;52.964;10.540;2022-12-18T05:36:33;-10.50;99.90
16102;DHT22;56411;52.964;10.540;2022-12-18T05:39:00;-10.50;99.90
16102;DHT22;56411;52.964;10.540;2022-12-18T05:41:27;-10.60;99.90
16102;DHT22;56411;52.964;10.540;2022-12-18T05:43:56;-10.70;99.90
16102;DHT22;56411;52.964;10.540;2022-12-18T05:46:24;-10.60;99.90
16102;DHT22;56411;52.964;10.540;2022-12-18T05:48:51;-10.60;99.90
16102;DHT22;56411;52.964;10.540;2022-12-18T05:51:20;-10.40;99.90
16102;DHT22;56411;52.964;10.540;2022-12-18T05:53:47;-10.40;99.90
16102;DHT22;56411;52.964;10.540;2022-12-18T05:56:18;-10.20;99.90
16102;DHT22;56411;52.964;10.540;2022-12-18T05:58:45;-10.10;99.90
16102;DHT22;56411;52.964;10.540;2022-12-18T06:01:17;-10.30;99.90
16102;DHT22;56411;52.964;10.540;2022-12-18T06:03:45;-10.30;99.90
16102;DHT22;56411;52.964;10.540;2022-12-18T06:06:14;-10.50;99.90
16102;DHT22;56411;52.964;10.540;2022-12-18T06:08:41;-10.60;99.90
16102;DHT22;56411;52.964;10.540;2022-12-18T06:11:08;-10.70;99.90
16102;DHT22;56411;52.964;10.540;2022-12-18T06:13:35;-10.70;99.90
16102;DHT22;56411;52.964;10.540;2022-12-18T06:16:03;-10.70;99.90
16102;DHT22;56411;52.964;10.540;2022-12-18T06:18:32;-10.70;99.90
16102;DHT22;56411;52.964;10.540;2022-12-18T06:21:00;-10.80;99.90
16102;DHT22;56411;52.964;10.540;2022-12-18T06:23:27;-10.90;99.90
16102;DHT22;56411;52.964;10.540;2022-12-18T06:25:54;-11.00;99.90
16102;DHT22;56411;52.964;10.540;2022-12-18T06:28:23;-11.10;99.90
16102;DHT22;56411;52.964;10.540;2022-12-18T06:30:50;-11.20;99.90
16102;DHT22;56411;52.964;10.540;2022-12-18T06:33:26;-11.20;99.90
16102;DHT22;56411;52.964;10.540;2022-12-18T06:35:59;-11.30;99.90
16102;DHT22;56411;52.964;10.540;2022-12-18T06:38:27;-11.30;99.90
16102;DHT22;56411;52.964;10.540;2022-12-18T06:40:54;-11.30;99.90
16102;DHT22;56411;52.964;10.540;2022-12-18T06:43:21;-11.40;99.90
16102;DHT22;56411;52.964;10.540;2022-12-18T06:45:48;-11.40;99.90
16102;DHT22;56411;52.964;10.540;2022-12-18T06:48:18;-11.40;99.90
16102;DHT22;56411;52.964;10.540;2022-12-18T06:50:45;-11.40;99.90
16102;DHT22;56411;52.964;10.540;2022-12-18T06:53:14;-11.30;99.90
16102;DHT22;56411;52.964;10.540;2022-12-18T06:55:41;-11.40;99.90
16102;DHT22;56411;52.964;10.540;2022-12-18T06:58:08;-11.40;99.90
16102;DHT22;56411;52.964;10.540;2022-12-18T07:00:35;-11.50;99.90
16102;DHT22;56411;52.964;10.540;2022-12-18T07:03:03;-11.50;99.90
16102;DHT22;56411;52.964;10.540;2022-12-18T07:05:30;-11.50;99.90
16102;DHT22;56411;52.964;10.540;2022-12-18T07:07:57;-11.50;99.90
16102;DHT22;56411;52.964;10.540;2022-12-18T07:10:26;-11.50;99.90
16102;DHT22;56411;52.964;10.540;2022-12-18T07:12:53;-11.50;99.90
16102;DHT22;56411;52.964;10.540;2022-12-18T07:15:22;-11.50;99.90
16102;DHT22;56411;52.964;10.540;2022-12-18T07:17:49;-11.50;99.90
16102;DHT22;56411;52.964;10.540;2022-12-18T07:20:16;-11.60;99.90
16102;DHT22;56411;52.964;10.540;2022-12-18T07:22:43;-11.60;99.90
16102;DHT22;56411;52.964;10.540;2022-12-18T07:25:10;-11.70;99.90
16102;DHT22;56411;52.964;10.540;2022-12-18T07:27:39;-11.70;99.90
16102;DHT22;56411;52.964;10.540;2022-12-18T07:30:08;-11.70;99.90
16102;DHT22;56411;52.964;10.540;2022-12-18T07:32:35;-11.80;99.90
16102;DHT22;56411;52.964;10.540;2022-12-18T07:35:03;-11.80;99.90
16102;DHT22;56411;52.964;10.540;2022-12-18T07:37:30;-11.80;99.90
16102;DHT22;56411;52.964;10.540;2022-12-18T07:39:57;-11.80;99.90
16102;DHT22;56411;52.964;10.540;2022-12-18T07:42:24;-11.80;99.90
16102;DHT22;56411;52.964;10.540;2022-12-18T07:44:59;-11.80;99.90
16102;DHT22;56411;52.964;10.540;2022-12-18T07:47:27;-11.80;99.90
16102;DHT22;56411;52.964;10.540;2022-12-18T07:49:54;-11.80;99.90
16102;DHT22;56411;52.964;10.540;2022-12-18T07:52:23;-11.80;99.90
16102;DHT22;56411;52.964;10.540;2022-12-18T07:54:50;-11.80;99.90
16102;DHT22;56411;52.964;10.540;2022-12-18T07:57:17;-11.80;99.90
16102;DHT22;56411;52.964;10.540;2022-12-18T07:59:44;-11.70;99.90
16102;DHT22;56411;52.964;10.540;2022-12-18T08:02:13;-11.70;99.90
16102;DHT22;56411;52.964;10.540;2022-12-18T08:04:40;-11.50;99.90
16102;DHT22;56411;52.964;10.540;2022-12-18T08:07:07;-11.30;99.90
16102;DHT22;56411;52.964;10.540;2022-12-18T08:09:34;-11.10;99.90
16102;DHT22;56411;52.964;10.540;2022-12-18T08:12:01;-11.20;99.90
16102;DHT22;56411;52.964;10.540;2022-12-18T08:14:28;-11.10;99.90
16102;DHT22;56411;52.964;10.540;2022-12-18T08:16:55;-11.10;99.90
16102;DHT22;56411;52.964;10.540;2022-12-18T08:19:25;-10.50;99.90
16102;DHT22;56411;52.964;10.540;2022-12-18T08:21:52;-10.40;99.90
16102;DHT22;56411;52.964;10.540;2022-12-18T08:24:19;-10.40;99.90
16102;DHT22;56411;52.964;10.540;2022-12-18T08:26:46;-10.30;99.90
16102;DHT22;56411;52.964;10.540;2022-12-18T08:29:13;-10.20;99.90
16102;DHT22;56411;52.964;10.540;2022-12-18T08:31:40;-10.20;99.90
16102;DHT22;56411;52.964;10.540;2022-12-18T08:34:08;-10.20;99.90
16102;DHT22;56411;52.964;10.540;2022-12-18T08:36:36;-10.20;99.90
16102;DHT22;56411;52.964;10.540;2022-12-18T08:39:03;-10.20;99.90
16102;DHT22;56411;52.964;10.540;2022-12-18T08:41:31;-10.10;99.90
16102;DHT22;56411;52.964;10.540;2022-12-18T08:43:58;-10.10;99.90
16102;DHT22;56411;52.964;10.540;2022-12-18T08:46:43;-10.10;99.90
16102;DHT22;56411;52.964;10.540;2022-12-18T08:49:11;-10.00;99.90
16102;DHT22;56411;52.964;10.540;2022-12-18T08:51:41;-10.00;99.90
16102;DHT22;56411;52.964;10.540;2022-12-18T08:54:11;-9.90;99.90
16102;DHT22;56411;52.964;10.540;2022-12-18T08:56:40;-9.90;99.90
16102;DHT22;56411;52.964;10.540;2022-12-18T08:59:08;-9.80;99.90
16102;DHT22;56411;52.964;10.540;2022-12-18T09:01:35;-9.70;99.90
16102;DHT22;56411;52.964;10.540;2022-12-18T09:04:02;-9.60;99.90
16102;DHT22;56411;52.964;10.540;2022-12-18T09:06:30;-9.50;99.90
16102;DHT22;56411;52.964;10.540;2022-12-18T09:08:59;-9.40;99.90
16102;DHT22;56411;52.964;10.540;2022-12-18T09:11:27;-9.20;99.90
16102;DHT22;56411;52.964;10.540;2022-12-18T09:13:57;-9.10;99.90
16102;DHT22;56411;52.964;10.540;2022-12-18T09:16:26;-8.90;99.90
16102;DHT22;56411;52.964;10.540;2022-12-18T09:18:54;-8.80;99.90
16102;DHT22;56411;52.964;10.540;2022-12-18T09:21:26;-8.70;99.90
16102;DHT22;56411;52.964;10.540;2022-12-18T09:23:56;-8.60;99.90
16102;DHT22;56411;52.964;10.540;2022-12-18T09:26:34;-8.50;99.90
16102;DHT22;56411;52.964;10.540;2022-12-18T09:29:02;-8.40;99.90
16102;DHT22;56411;52.964;10.540;2022-12-18T09:31:42;-8.10;99.90
16102;DHT22;56411;52.964;10.540;2022-12-18T09:34:23;-7.90;99.90
16102;DHT22;56411;52.964;10.540;2022-12-18T09:36:58;-7.80;99.90
16102;DHT22;56411;52.964;10.540;2022-12-18T09:39:38;-7.70;99.90
16102;DHT22;56411;52.964;10.540;2022-12-18T09:42:17;-7.60;99.90
16102;DHT22;56411;52.964;10.540;2022-12-18T09:44:49;-7.30;99.90
16102;DHT22;56411;52.964;10.540;2022-12-18T09:47:29;-7.10;99.90
16102;DHT22;56411;52.964;10.540;2022-12-18T09:50:14;-6.90;99.90
16102;DHT22;56411;52.964;10.540;2022-12-18T09:52:46;-6.70;99.90
16102;DHT22;56411;52.964;10.540;2022-12-18T09:55:21;-6.40;99.90
16102;DHT22;56411;52.964;10.540;2022-12-18T09:57:56;-6.20;99.90
16102;DHT22;56411;52.964;10.540;2022-12-18T10:00:25;-6.00;99.90
16102;DHT22;56411;52.964;10.540;2022-12-18T10:02:56;-5.90;99.90
16102;DHT22;56411;52.964;10.540;2022-12-18T10:05:35;-5.80;99.90
16102;DHT22;56411;52.964;10.540;2022-12-18T10:08:08;-5.60;99.90
16102;DHT22;56411;52.964;10.540;2022-12-18T10:10:40;-5.40;99.90
16102;DHT22;56411;52.964;10.540;2022-12-18T10:13:18;-5.30;99.90
16102;DHT22;56411;52.964;10.540;2022-12-18T10:15:54;-5.10;99.90
16102;DHT22;56411;52.964;10.540;2022-12-18T10:18:33;-4.90;99.90
16102;DHT22;56411;52.964;10.540;2022-12-18T10:21:09;-4.60;99.90
16102;DHT22;56411;52.964;10.540;2022-12-18T10:23:41;-4.20;99.90
16102;DHT22;56411;52.964;10.540;2022-12-18T10:26:11;-3.90;99.90
16102;DHT22;56411;52.964;10.540;2022-12-18T10:28:41;-3.70;99.90
16102;DHT22;56411;52.964;10.540;2022-12-18T10:31:14;-3.60;99.90
16102;DHT22;56411;52.964;10.540;2022-12-18T10:33:43;-3.40;99.90
16102;DHT22;56411;52.964;10.540;2022-12-18T10:36:11;-3.10;99.90
16102;DHT22;56411;52.964;10.540;2022-12-18T10:38:39;-2.90;99.90
16102;DHT22;56411;52.964;10.540;2022-12-18T10:41:24;-2.80;99.90
16102;DHT22;56411;52.964;10.540;2022-12-18T10:44:12;-2.70;99.90
16102;DHT22;56411;52.964;10.540;2022-12-18T10:46:42;-2.60;99.90
16102;DHT22;56411;52.964;10.540;2022-12-18T10:49:21;-2.30;99.90
16102;DHT22;56411;52.964;10.540;2022-12-18T10:51:49;-1.90;99.90
16102;DHT22;56411;52.964;10.540;2022-12-18T10:54:19;-1.70;99.90
16102;DHT22;56411;52.964;10.540;2022-12-18T10:56:48;-1.80;99.90
16102;DHT22;56411;52.964;10.540;2022-12-18T10:59:17;-1.50;99.90
16102;DHT22;56411;52.964;10.540;2022-12-18T11:01:48;-1.20;99.90
16102;DHT22;56411;52.964;10.540;2022-12-18T11:04:29;-1.00;99.90
16102;DHT22;56411;52.964;10.540;2022-12-18T11:06:59;-1.10;99.90
16102;DHT22;56411;52.964;10.540;2022-12-18T11:09:28;-1.20;99.90
16102;DHT22;56411;52.964;10.540;2022-12-18T11:11:59;-1.60;99.90
16102;DHT22;56411;52.964;10.540;2022-12-18T11:14:30;-1.90;99.90
16102;DHT22;56411;52.964;10.540;2022-12-18T11:17:18;-1.90;99.90
16102;DHT22;56411;52.964;10.540;2022-12-18T11:20:19;-1.90;99.90
16102;DHT22;56411;52.964;10.540;2022-12-18T11:22:56;-1.80;99.90
16102;DHT22;56411;52.964;10.540;2022-12-18T11:25:25;-1.70;99.90
16102;DHT22;56411;52.964;10.540;2022-12-18T11:28:33;-1.50;99.90
16102;DHT22;56411;52.964;10.540;2022-12-18T11:31:27;-1.50;99.90
16102;DHT22;56411;52.964;10.540;2022-12-18T11:34:01;-1.00;99.90
16102;DHT22;56411;52.964;10.540;2022-12-18T11:36:36;-0.70;99.90
16102;DHT22;56411;52.964;10.540;2022-12-18T11:39:20;-0.70;99.90
16102;DHT22;56411;52.964;10.540;2022-12-18T11:42:01;-1.00;99.90
16102;DHT22;56411;52.964;10.540;2022-12-18T11:44:45;-0.90;99.90
16102;DHT22;56411;52.964;10.540;2022-12-18T11:47:25;-0.80;99.90
16102;DHT22;56411;52.964;10.540;2022-12-18T11:50:12;-0.50;99.90
16102;DHT22;56411;52.964;10.540;2022-12-18T11:52:41;-0.70;99.90
16102;DHT22;56411;52.964;10.540;2022-12-18T11:55:14;-0.80;99.90
16102;DHT22;56411;52.964;10.540;2022-12-18T11:57:51;-1.00;99.90
16102;DHT22;56411;52.964;10.540;2022-12-18T12:00:26;-1.30;99.90
16102;DHT22;56411;52.964;10.540;2022-12-18T12:03:26;-1.30;99.90
16102;DHT22;56411;52.964;10.540;2022-12-18T12:13:34;-0.40;99.90
16102;DHT22;56411;52.964;10.540;2022-12-18T12:16:55;0.20;99.90
16102;DHT22;56411;52.964;10.540;2022-12-18T12:19:51;0.50;99.90
16102;DHT22;56411;52.964;10.540;2022-12-18T12:22:43;0.30;99.90
16102;DHT22;56411;52.964;10.540;2022-12-18T12:28:57;-0.10;99.90
16102;DHT22;56411;52.964;10.540;2022-12-18T12:32:29;-0.40;99.90
16102;DHT22;56411;52.964;10.540;2022-12-18T12:35:18;-0.50;99.90
16102;DHT22;56411;52.964;10.540;2022-12-18T12:37:58;-0.80;99.90
16102;DHT22;56411;52.964;10.540;2022-12-18T12:40:33;-0.90;99.90
16102;DHT22;56411;52.964;10.540;2022-12-18T12:43:15;-1.00;99.90
16102;DHT22;56411;52.964;10.540;2022-12-18T12:46:02;-0.80;99.90
16102;DHT22;56411;52.964;10.540;2022-12-18T12:48:43;-0.70;99.90
16102;DHT22;56411;52.964;10.540;2022-12-18T12:51:17;-0.70;99.90
16102;DHT22;56411;52.964;10.540;2022-12-18T12:53:49;-0.80;99.90
16102;DHT22;56411;52.964;10.540;2022-12-18T12:56:24;-1.00;99.90
16102;DHT22;56411;52.964;10.540;2022-12-18T12:59:23;-1.20;99.90
16102;DHT22;56411;52.964;10.540;2022-12-18T13:02:15;-1.40;99.90
16102;DHT22;56411;52.964;10.540;2022-12-18T13:05:00;-1.40;99.90
16102;DHT22;56411;52.964;10.540;2022-12-18T13:07:37;-1.20;99.90
16102;DHT22;56411;52.964;10.540;2022-12-18T13:10:31;-0.90;99.90
16102;DHT22;56411;52.964;10.540;2022-12-18T13:13:01;-0.80;99.90
16102;DHT22;56411;52.964;10.540;2022-12-18T13:15:32;-1.00;99.90
16102;DHT22;56411;52.964;10.540;2022-12-18T13:18:18;-1.30;99.90
16102;DHT22;56411;52.964;10.540;2022-12-18T13:20:47;-1.60;99.90
16102;DHT22;56411;52.964;10.540;2022-12-18T13:23:35;-1.90;99.90
16102;DHT22;56411;52.964;10.540;2022-12-18T13:26:32;-2.20;99.90
16102;DHT22;56411;52.964;10.540;2022-12-18T13:29:00;-2.40;99.90
16102;DHT22;56411;52.964;10.540;2022-12-18T13:34:36;-2.70;99.90
16102;DHT22;56411;52.964;10.540;2022-12-18T13:43:41;-3.10;99.90
16102;DHT22;56411;52.964;10.540;2022-12-18T13:46:23;-3.20;99.90
16102;DHT22;56411;52.964;10.540;2022-12-18T13:48:57;-3.30;99.90
16102;DHT22;56411;52.964;10.540;2022-12-18T13:51:31;-3.50;99.90
16102;DHT22;56411;52.964;10.540;2022-12-18T13:54:02;-3.60;99.90
16102;DHT22;56411;52.964;10.540;2022-12-18T13:56:42;-3.80;99.90
16102;DHT22;56411;52.964;10.540;2022-12-18T13:59:16;-3.80;99.90
16102;DHT22;56411;52.964;10.540;2022-12-18T14:01:51;-4.00;99.90
16102;DHT22;56411;52.964;10.540;2022-12-18T14:04:24;-4.10;99.90
16102;DHT22;56411;52.964;10.540;2022-12-18T14:06:55;-4.20;99.90
16102;DHT22;56411;52.964;10.540;2022-12-18T14:09:27;-4.30;99.90
16102;DHT22;56411;52.964;10.540;2022-12-18T14:11:57;-4.40;99.90
16102;DHT22;56411;52.964;10.540;2022-12-18T14:14:46;-4.50;99.90
16102;DHT22;56411;52.964;10.540;2022-12-18T14:17:20;-4.60;99.90
16102;DHT22;56411;52.964;10.540;2022-12-18T14:19:49;-4.60;99.90
16102;DHT22;56411;52.964;10.540;2022-12-18T14:22:19;-4.60;99.90
16102;DHT22;56411;52.964;10.540;2022-12-18T14:24:47;-4.70;99.90
16102;DHT22;56411;52.964;10.540;2022-12-18T14:27:24;-4.80;99.90
16102;DHT22;56411;52.964;10.540;2022-12-18T14:29:54;-4.80;99.90
16102;DHT22;56411;52.964;10.540;2022-12-18T14:32:31;-4.80;99.90
16102;DHT22;56411;52.964;10.540;2022-12-18T14:35:13;-4.90;99.90
16102;DHT22;56411;52.964;10.540;2022-12-18T14:38:07;-5.00;99.90
16102;DHT22;56411;52.964;10.540;2022-12-18T14:40:36;-5.00;99.90
16102;DHT22;56411;52.964;10.540;2022-12-18T14:43:03;-5.10;99.90
16102;DHT22;56411;52.964;10.540;2022-12-18T14:45:38;-5.00;99.90
16102;DHT22;56411;52.964;10.540;2022-12-18T14:48:24;-5.00;99.90
16102;DHT22;56411;52.964;10.540;2022-12-18T14:51:20;-5.10;99.90
16102;DHT22;56411;52.964;10.540;2022-12-18T14:53:58;-5.10;99.90
16102;DHT22;56411;52.964;10.540;2022-12-18T14:56:28;-5.10;99.90
16102;DHT22;56411;52.964;10.540;2022-12-18T14:58:58;-5.10;99.90
16102;DHT22;56411;52.964;10.540;2022-12-18T15:01:30;-5.20;99.90
16102;DHT22;56411;52.964;10.540;2022-12-18T15:04:00;-5.20;99.90
16102;DHT22;56411;52.964;10.540;2022-12-18T15:06:32;-5.20;99.90
16102;DHT22;56411;52.964;10.540;2022-12-18T15:09:01;-5.20;99.90
16102;DHT22;56411;52.964;10.540;2022-12-18T15:11:42;-5.30;99.90
16102;DHT22;56411;52.964;10.540;2022-12-18T15:14:33;-5.40;99.90
16102;DHT22;56411;52.964;10.540;2022-12-18T15:17:14;-5.40;99.90
16102;DHT22;56411;52.964;10.540;2022-12-18T15:19:44;-5.40;99.90
16102;DHT22;56411;52.964;10.540;2022-12-18T15:22:25;-5.50;99.90
16102;DHT22;56411;52.964;10.540;2022-12-18T15:25:02;-5.60;99.90
16102;DHT22;56411;52.964;10.540;2022-12-18T15:49:16;-5.60;99.90
16102;DHT22;56411;52.964;10.540;2022-12-18T15:54:51;-5.80;99.90
16102;DHT22;56411;52.964;10.540;2022-12-18T15:57:38;-5.70;99.90
16102;DHT22;56411;52.964;10.540;2022-12-18T16:00:25;-5.70;99.90
16102;DHT22;56411;52.964;10.540;2022-12-18T16:02:57;-5.80;99.90
16102;DHT22;56411;52.964;10.540;2022-12-18T16:05:30;-5.80;99.90
16102;DHT22;56411;52.964;10.540;2022-12-18T16:07:58;-5.90;99.90
16102;DHT22;56411;52.964;10.540;2022-12-18T16:10:27;-5.90;99.90
16102;DHT22;56411;52.964;10.540;2022-12-18T16:12:56;-5.80;99.90
16102;DHT22;56411;52.964;10.540;2022-12-18T16:15:26;-5.70;99.90
16102;DHT22;56411;52.964;10.540;2022-12-18T16:17:54;-5.70;99.90
16102;DHT22;56411;52.964;10.540;2022-12-18T16:20:22;-5.60;99.90
16102;DHT22;56411;52.964;10.540;2022-12-18T16:23:05;-5.60;99.90
16102;DHT22;56411;52.964;10.540;2022-12-18T16:25:39;-5.60;99.90
16102;DHT22;56411;52.964;10.540;2022-12-18T16:28:07;-5.50;99.90
16102;DHT22;56411;52.964;10.540;2022-12-18T16:30:56;-5.50;99.90
16102;DHT22;56411;52.964;10.540;2022-12-18T16:33:26;-5.40;99.90